Time;durP1;ratioP1;P1;durP2;ratioP2;P2;SDS_P1;SDS_P2;PMS_P1;PMS_P2;Temp;Humidity;BMP_temperature;BMP_pressure;BME280_temperature;BME280_humidity;BME280_pressure;Samples;Min_cycle;Max_cycle;Signal;HPM_P1;HPM_P2
2022/03/09 00:01:46;;;;;;;2.83;2.22;;;22.60;26.50;;;;;;5014723;28;20395;-73
2022/03/09 00:04:12;;;;;;;2.97;2.40;;;22.50;26.50;;;;;;5032680;28;20823;-73
2022/03/09 00:06:38;;;;;;;3.10;2.22;;;22.50;26.50;;;;;;5032263;28;20841;-76
2022/03/09 00:09:04;;;;;;;3.23;2.30;;;22.50;26.50;;;;;;5032655;28;20800;-75
2022/03/09 00:11:30;;;;;;;3.70;2.43;;;22.50;26.50;;;;;;5014624;28;20478;-77
2022/03/09 00:13:56;;;;;;;3.05;2.20;;;22.50;26.60;;;;;;5015230;28;20753;-74
2022/03/09 00:16:21;;;;;;;3.47;2.40;;;22.50;26.60;;;;;;5032294;28;20894;-75
2022/03/09 00:18:47;;;;;;;3.23;2.33;;;22.40;26.60;;;;;;5031660;28;20387;-76
2022/03/09 00:21:13;;;;;;;3.10;2.25;;;22.50;26.60;;;;;;5031825;28;20433;-72
2022/03/09 00:23:39;;;;;;;2.70;2.20;;;22.50;26.60;;;;;;5014613;28;20423;-72
2022/03/09 00:26:05;;;;;;;2.60;2.10;;;22.50;26.50;;;;;;5014562;28;20535;-71
2022/03/09 00:28:31;;;;;;;3.13;2.10;;;22.50;26.60;;;;;;5014046;28;20423;-72
2022/03/09 00:30:57;;;;;;;2.90;2.30;;;22.40;26.60;;;;;;5014410;28;20469;-73
2022/03/09 00:33:22;;;;;;;2.88;2.13;;;22.40;26.60;;;;;;5014504;28;20714;-73
2022/03/09 00:35:48;;;;;;;2.80;2.20;;;22.40;26.50;;;;;;5014590;28;20483;-72
2022/03/09 00:38:13;;;;;;;3.40;2.30;;;22.30;26.50;;;;;;5031931;28;20422;-74
2022/03/09 00:40:39;;;;;;;3.38;2.28;;;22.30;26.50;;;;;;5014113;28;20423;-73
2022/03/09 00:43:05;;;;;;;2.23;1.83;;;22.30;26.60;;;;;;5032042;28;20392;-72
2022/03/09 00:45:31;;;;;;;3.22;1.90;;;22.30;26.60;;;;;;5014242;28;20448;-72
2022/03/09 00:47:57;;;;;;;3.05;1.90;;;22.20;26.60;;;;;;5014161;28;20394;-72
2022/03/09 00:50:23;;;;;;;2.97;2.20;;;22.30;26.70;;;;;;5031512;28;20434;-73
2022/03/09 00:52:48;;;;;;;2.72;2.10;;;22.20;27.10;;;;;;5013947;28;20395;-74
2022/03/09 00:55:14;;;;;;;4.03;2.33;;;22.20;26.60;;;;;;5031509;28;20399;-74
2022/03/09 00:57:40;;;;;;;3.33;2.20;;;22.20;26.70;;;;;;5032010;28;20387;-73
2022/03/09 01:00:07;;;;;;;3.00;2.40;;;22.20;26.60;;;;;;5013809;28;20394;-73
2022/03/09 01:02:38;;;;;;;3.47;2.50;;;22.20;26.60;;;;;;5030817;28;20438;-72
2022/03/09 01:05:04;;;;;;;3.95;2.30;;;22.20;26.60;;;;;;5013715;28;20403;-72
2022/03/09 01:07:30;;;;;;;2.78;2.22;;;22.20;26.60;;;;;;5014110;28;20804;-73
2022/03/09 01:09:55;;;;;;;2.97;2.40;;;22.20;26.60;;;;;;5013967;28;20411;-72
2022/03/09 01:12:21;;;;;;;3.50;2.30;;;22.20;26.60;;;;;;5031110;28;20402;-73
2022/03/09 01:14:47;;;;;;;3.40;2.50;;;22.20;26.60;;;;;;5013752;28;20422;-73
2022/03/09 01:17:12;;;;;;;3.17;2.30;;;22.20;26.60;;;;;;5013914;28;20502;-73
2022/03/09 01:19:38;;;;;;;3.25;2.25;;;22.10;26.60;;;;;;5031462;28;20968;-72
2022/03/09 01:22:03;;;;;;;3.37;2.30;;;22.10;26.60;;;;;;5013942;28;20413;-73
2022/03/09 01:24:29;;;;;;;3.13;2.40;;;22.00;26.50;;;;;;5031115;28;20393;-72
2022/03/09 01:26:55;;;;;;;2.97;2.28;;;22.10;26.60;;;;;;5013732;28;20399;-73
2022/03/09 01:29:20;;;;;;;3.00;2.40;;;22.10;26.50;;;;;;5031488;28;20398;-72
2022/03/09 01:31:46;;;;;;;3.30;2.20;;;22.10;26.50;;;;;;5031151;28;20423;-72
2022/03/09 01:34:12;;;;;;;3.20;2.35;;;22.10;26.50;;;;;;5031386;28;20391;-73
2022/03/09 01:36:38;;;;;;;3.80;2.57;;;22.10;26.50;;;;;;5031022;28;20406;-73
2022/03/09 01:39:04;;;;;;;3.58;2.42;;;22.10;26.50;;;;;;5031977;28;20391;-73
2022/03/09 01:41:30;;;;;;;3.28;2.17;;;22.10;26.40;;;;;;5013680;28;20392;-73
2022/03/09 01:44:13;;;;;;;3.28;2.33;;;22.00;26.40;;;;;;5031292;28;20441;-72
2022/03/09 01:46:40;;;;;;;3.10;2.23;;;22.10;26.40;;;;;;5030634;28;20401;-72
2022/03/09 01:49:07;;;;;;;3.75;2.60;;;22.10;26.40;;;;;;5031103;28;20375;-72
2022/03/09 01:51:38;;;;;;;3.00;2.20;;;22.10;26.60;;;;;;5031020;28;20905;-72
2022/03/09 01:54:04;;;;;;;3.03;2.30;;;22.00;26.40;;;;;;5031253;28;20389;-73
2022/03/09 01:56:30;;;;;;;3.88;2.40;;;22.00;26.40;;;;;;5030819;28;20395;-73
2022/03/09 01:58:56;;;;;;;3.00;2.40;;;22.00;26.40;;;;;;5031278;28;20391;-72
2022/03/09 02:01:22;;;;;;;2.70;2.10;;;22.00;26.40;;;;;;5031200;28;20414;-73
2022/03/09 02:03:49;;;;;;;3.20;2.50;;;22.00;26.40;;;;;;5031160;28;20426;-72
2022/03/09 02:06:14;;;;;;;2.88;2.20;;;22.00;26.40;;;;;;5030870;28;20395;-73
2022/03/09 02:11:28;;;;;;;2.78;2.20;;;21.90;26.40;;;;;;5031140;28;20461;-72
2022/03/09 02:13:54;;;;;;;3.00;2.20;;;21.90;26.40;;;;;;5030957;28;20753;-71
2022/03/09 02:16:20;;;;;;;3.10;2.20;;;21.90;26.40;;;;;;5033579;28;20394;-73
2022/03/09 02:18:45;;;;;;;3.10;2.40;;;21.90;26.50;;;;;;5034361;28;20730;-73
2022/03/09 02:21:15;;;;;;;2.70;2.00;;;21.90;26.50;;;;;;5034524;28;20399;-72
2022/03/09 02:23:41;;;;;;;2.95;2.20;;;21.90;26.40;;;;;;5034769;28;20398;-73
2022/03/09 02:26:06;;;;;;;3.00;2.20;;;21.90;26.40;;;;;;5034588;28;20399;-74
2022/03/09 02:28:40;;;;;;;2.72;2.10;;;21.90;26.40;;;;;;5033486;28;20541;-72
2022/03/09 02:31:06;;;;;;;3.50;2.13;;;21.90;26.40;;;;;;5016705;28;20426;-74
2022/03/09 02:33:32;;;;;;;2.78;2.10;;;21.90;26.40;;;;;;5035288;28;20387;-72
2022/03/09 02:35:57;;;;;;;3.00;2.00;;;21.80;26.40;;;;;;5035187;28;20413;-72
2022/03/09 02:38:23;;;;;;;3.22;1.88;;;21.80;26.50;;;;;;5034529;28;20521;-72
2022/03/09 02:40:49;;;;;;;2.65;2.05;;;21.80;26.50;;;;;;5034370;28;20406;-73
2022/03/09 02:43:15;;;;;;;3.00;2.23;;;21.80;26.50;;;;;;5034259;28;20395;-72
2022/03/09 02:45:40;;;;;;;2.80;2.03;;;21.80;26.40;;;;;;5034361;28;20398;-73
2022/03/09 02:48:06;;;;;;;2.80;2.10;;;21.80;26.40;;;;;;5034270;28;20722;-74
2022/03/09 02:50:31;;;;;;;2.93;2.20;;;21.80;26.40;;;;;;5033644;28;20974;-72
2022/03/09 02:52:57;;;;;;;2.75;2.05;;;21.80;26.40;;;;;;5034122;28;20769;-72
2022/03/09 02:55:25;;;;;;;2.75;2.10;;;21.80;26.40;;;;;;5033472;28;20419;-72
2022/03/09 02:57:50;;;;;;;2.35;2.10;;;21.80;26.40;;;;;;5034094;28;20391;-72
2022/03/09 03:00:16;;;;;;;3.20;1.90;;;21.80;26.30;;;;;;5034145;28;20418;-74
2022/03/09 03:02:42;;;;;;;2.88;2.10;;;21.80;26.30;;;;;;5033695;28;20753;-72
2022/03/09 03:05:08;;;;;;;2.65;2.03;;;21.80;26.30;;;;;;5033842;28;20387;-71
2022/03/09 03:07:34;;;;;;;3.00;2.10;;;21.80;26.20;;;;;;5033799;28;20880;-72
2022/03/09 03:10:00;;;;;;;2.53;2.22;;;21.80;26.30;;;;;;5033644;28;20411;-72
2022/03/09 03:12:26;;;;;;;2.80;2.10;;;21.80;26.30;;;;;;5034301;28;20406;-73
2022/03/09 03:14:52;;;;;;;2.47;2.13;;;21.80;26.30;;;;;;5015834;28;20407;-73
2022/03/09 03:17:24;;;;;;;3.42;2.13;;;21.80;26.30;;;;;;5016195;28;20498;-72
2022/03/09 03:19:50;;;;;;;2.50;2.10;;;21.80;26.20;;;;;;5016055;28;20466;-72
2022/03/09 03:22:16;;;;;;;2.63;1.88;;;21.80;26.20;;;;;;5015848;28;20541;-72
2022/03/09 03:24:43;;;;;;;2.80;2.10;;;21.80;26.30;;;;;;5015445;28;20395;-73
2022/03/09 03:27:08;;;;;;;2.65;2.15;;;21.70;26.30;;;;;;5033244;28;20926;-73
2022/03/09 03:29:34;;;;;;;3.30;1.97;;;21.70;26.30;;;;;;5015889;28;20399;-73
2022/03/09 03:31:59;;;;;;;2.53;1.95;;;21.70;26.30;;;;;;5033070;28;20450;-73
2022/03/09 03:34:25;;;;;;;2.53;2.10;;;21.70;26.20;;;;;;5015644;28;20497;-72
2022/03/09 03:36:51;;;;;;;2.45;2.05;;;21.70;26.20;;;;;;5033018;28;20395;-72
2022/03/09 03:39:17;;;;;;;2.67;2.10;;;21.70;26.10;;;;;;5033341;28;20438;-73
2022/03/09 03:41:42;;;;;;;3.13;2.53;;;21.70;26.20;;;;;;5034109;28;20427;-72
2022/03/09 03:44:08;;;;;;;2.80;2.08;;;21.70;26.20;;;;;;5033281;28;20393;-73
2022/03/09 03:46:34;;;;;;;2.77;2.10;;;21.70;26.10;;;;;;5032846;28;20402;-72
2022/03/09 03:49:00;;;;;;;2.25;1.80;;;21.70;26.10;;;;;;5032992;28;20406;-73
2022/03/09 03:51:25;;;;;;;3.47;2.05;;;21.60;26.20;;;;;;5033125;28;20521;-72
2022/03/09 03:53:51;;;;;;;3.10;2.13;;;21.60;26.20;;;;;;5015312;28;20901;-72
2022/03/09 03:56:17;;;;;;;2.47;1.90;;;21.70;26.20;;;;;;5032992;28;20395;-73
2022/03/09 03:58:42;;;;;;;2.73;2.23;;;21.60;26.10;;;;;;5032566;28;20513;-73
2022/03/09 04:01:08;;;;;;;2.80;1.92;;;21.60;26.20;;;;;;5032998;28;20468;-72
2022/03/09 04:03:33;;;;;;;2.55;2.00;;;21.60;26.10;;;;;;5033591;28;20441;-72
2022/03/09 04:06:00;;;;;;;4.70;2.13;;;21.60;26.30;;;;;;5034370;28;20438;-72
2022/03/09 04:08:26;;;;;;;3.75;2.15;;;21.60;26.60;;;;;;5032844;28;20391;-73
2022/03/09 04:10:52;;;;;;;4.93;1.92;;;21.70;26.60;;;;;;5033035;28;20426;-72
2022/03/09 04:13:18;;;;;;;4.45;2.10;;;21.70;27.00;;;;;;5033988;28;20391;-71
2022/03/09 04:15:44;;;;;;;5.50;2.40;;;21.70;26.70;;;;;;5032679;28;20429;-73
2022/03/09 04:18:10;;;;;;;7.15;2.47;;;21.70;26.80;;;;;;5032385;28;20781;-72
2022/03/09 04:20:35;;;;;;;7.30;2.40;;;21.70;27.40;;;;;;5032197;28;20395;-73
2022/03/09 04:23:01;;;;;;;5.13;2.53;;;21.70;28.10;;;;;;5014895;28;20395;-72
2022/03/09 04:25:29;;;;;;;4.18;2.10;;;21.70;27.60;;;;;;5032377;28;20825;-71
2022/03/09 04:27:55;;;;;;;5.67;2.30;;;21.70;28.00;;;;;;5032271;28;20471;-72
2022/03/09 04:30:20;;;;;;;5.70;2.50;;;21.80;28.10;;;;;;5032282;28;20407;-71
2022/03/09 04:32:46;;;;;;;4.70;2.10;;;21.80;28.40;;;;;;5031924;28;20383;-71
2022/03/09 04:35:12;;;;;;;4.70;2.20;;;21.90;28.30;;;;;;5032226;28;20399;-72
2022/03/09 04:37:38;;;;;;;4.13;2.28;;;21.90;28.30;;;;;;5031175;28;20750;-75
2022/03/09 04:40:04;;;;;;;7.90;2.10;;;21.90;27.90;;;;;;5031897;28;20453;-72
2022/03/09 04:42:30;;;;;;;4.18;2.20;;;21.90;27.90;;;;;;5031970;28;20401;-72
2022/03/09 04:44:56;;;;;;;5.55;2.08;;;21.90;28.00;;;;;;5031638;28;20390;-71
2022/03/09 04:47:22;;;;;;;5.67;1.90;;;21.90;28.10;;;;;;5032272;28;20391;-75
2022/03/09 04:49:49;;;;;;;4.95;2.20;;;21.90;27.80;;;;;;5014448;28;20442;-72
2022/03/09 04:52:15;;;;;;;2.97;2.20;;;21.80;27.80;;;;;;5031567;28;20403;-72
2022/03/09 04:54:40;;;;;;;4.65;1.90;;;21.80;27.40;;;;;;5031356;28;20460;-72
2022/03/09 04:57:06;;;;;;;4.53;2.23;;;21.80;27.20;;;;;;5030990;28;20383;-73
2022/03/09 04:59:32;;;;;;;5.05;2.33;;;21.70;27.20;;;;;;5031932;28;20414;-71
2022/03/09 05:01:57;;;;;;;4.30;2.30;;;21.70;27.00;;;;;;5031721;28;20392;-75
2022/03/09 05:04:23;;;;;;;5.33;2.00;;;21.60;27.00;;;;;;5031522;28;20398;-74
2022/03/09 05:06:48;;;;;;;4.40;2.00;;;21.50;27.00;;;;;;5030999;28;20406;-72
2022/03/09 05:09:14;;;;;;;4.63;2.30;;;21.50;26.90;;;;;;5031520;28;20383;-72
2022/03/09 05:11:40;;;;;;;4.70;2.28;;;21.40;26.90;;;;;;5013708;28;20781;-75
2022/03/09 05:14:05;;;;;;;4.17;1.90;;;21.40;27.00;;;;;;5031505;28;20383;-73
2022/03/09 05:16:31;;;;;;;3.47;2.17;;;21.50;26.90;;;;;;5013660;28;20403;-71
2022/03/09 05:18:57;;;;;;;4.23;2.00;;;21.50;26.80;;;;;;5031058;28;20462;-71
2022/03/09 05:21:22;;;;;;;4.30;2.10;;;21.60;26.60;;;;;;5013485;28;20395;-72
2022/03/09 05:23:48;;;;;;;2.93;1.97;;;21.60;26.70;;;;;;5031468;28;20395;-71
2022/03/09 05:26:13;;;;;;;3.85;2.10;;;21.50;26.80;;;;;;5031392;28;20978;-71
2022/03/09 05:28:39;;;;;;;4.40;2.27;;;21.50;27.20;;;;;;5030872;28;20873;-70
2022/03/09 05:31:05;;;;;;;5.60;2.40;;;21.50;27.40;;;;;;5031328;28;20900;-71
2022/03/09 05:33:31;;;;;;;4.17;1.97;;;21.50;27.00;;;;;;5031342;28;20718;-72
2022/03/09 05:35:56;;;;;;;4.38;2.20;;;21.50;26.90;;;;;;5031194;28;20394;-71
2022/03/09 05:38:22;;;;;;;3.43;2.00;;;21.60;27.00;;;;;;5031336;28;20384;-74
2022/03/09 05:40:48;;;;;;;3.13;1.90;;;21.50;26.90;;;;;;5030772;28;20418;-73
2022/03/09 05:43:13;;;;;;;3.63;2.25;;;21.60;26.80;;;;;;5013504;28;20445;-72
2022/03/09 05:45:39;;;;;;;7.60;2.20;;;21.60;27.10;;;;;;5031239;28;20484;-72
2022/03/09 05:48:05;;;;;;;3.63;2.10;;;21.60;26.90;;;;;;5031216;28;20434;-74
2022/03/09 05:50:31;;;;;;;3.43;2.17;;;21.60;26.70;;;;;;5034196;28;20871;-71
2022/03/09 05:52:56;;;;;;;3.67;2.10;;;21.60;26.80;;;;;;5034444;28;20391;-75
2022/03/09 05:55:22;;;;;;;2.88;2.28;;;21.60;26.70;;;;;;5035350;28;20453;-71
2022/03/09 05:57:48;;;;;;;3.80;2.40;;;21.60;26.40;;;;;;5035175;28;20391;-72
2022/03/09 06:00:14;;;;;;;3.17;2.00;;;21.60;27.30;;;;;;5017394;28;20449;-72
2022/03/09 06:02:40;;;;;;;3.88;2.42;;;21.50;27.30;;;;;;5034563;28;20394;-72
2022/03/09 06:05:07;;;;;;;5.53;2.97;;;21.60;26.70;;;;;;5034888;28;20456;-71
2022/03/09 06:07:33;;;;;;;4.63;2.70;;;21.50;27.10;;;;;;5034763;28;20394;-71
2022/03/09 06:09:59;;;;;;;7.73;2.90;;;21.50;27.10;;;;;;5034269;28;20391;-73
2022/03/09 06:12:24;;;;;;;4.13;2.50;;;21.40;27.90;;;;;;5034979;28;20402;-71
2022/03/09 06:14:50;;;;;;;3.90;2.73;;;21.50;27.60;;;;;;5034349;28;20383;-72
2022/03/09 06:17:16;;;;;;;4.57;2.47;;;21.50;27.40;;;;;;5034624;28;20869;-74
2022/03/09 06:19:42;;;;;;;4.78;2.80;;;21.50;27.20;;;;;;5016366;28;20872;-73
2022/03/09 06:22:07;;;;;;;5.03;3.03;;;21.50;27.00;;;;;;5034524;28;20490;-75
2022/03/09 06:24:33;;;;;;;4.60;2.85;;;21.50;27.10;;;;;;5016930;28;20867;-73
2022/03/09 06:26:59;;;;;;;5.03;2.90;;;21.40;27.10;;;;;;5034266;28;20777;-74
2022/03/09 06:29:25;;;;;;;5.32;2.50;;;21.50;27.10;;;;;;5016937;28;20434;-74
2022/03/09 06:31:50;;;;;;;3.97;2.50;;;21.40;27.40;;;;;;5034229;28;20419;-74
2022/03/09 06:34:16;;;;;;;4.75;2.70;;;21.40;26.90;;;;;;5016766;28;20430;-74
2022/03/09 06:36:44;;;;;;;3.50;2.50;;;21.40;27.40;;;;;;5033934;28;20403;-73
2022/03/09 06:39:12;;;;;;;4.45;2.70;;;21.30;26.80;;;;;;5016284;28;20398;-74
2022/03/09 06:41:42;;;;;;;3.55;2.35;;;21.30;26.90;;;;;;5034311;28;20401;-74
2022/03/09 06:44:09;;;;;;;3.58;2.75;;;21.30;26.90;;;;;;5034248;28;20383;-73
2022/03/09 06:46:34;;;;;;;4.45;2.88;;;21.30;26.80;;;;;;5016013;28;20399;-73
2022/03/09 06:49:00;;;;;;;3.83;2.67;;;21.30;26.90;;;;;;5034023;28;20398;-74
2022/03/09 06:51:26;;;;;;;5.72;2.70;;;21.30;26.80;;;;;;5033907;28;20419;-74
2022/03/09 06:53:51;;;;;;;3.50;2.60;;;21.30;26.70;;;;;;5016319;28;20395;-74
2022/03/09 06:56:20;;;;;;;3.67;2.60;;;21.30;26.70;;;;;;5033707;28;20391;-74
2022/03/09 06:58:46;;;;;;;4.35;2.67;;;21.30;26.60;;;;;;5015863;28;20402;-74
2022/03/09 07:01:12;;;;;;;3.60;2.70;;;21.40;26.70;;;;;;5015649;28;20395;-73
2022/03/09 07:03:38;;;;;;;3.63;2.60;;;21.40;26.70;;;;;;5016340;28;20407;-74
2022/03/09 07:06:04;;;;;;;3.50;2.20;;;21.40;26.80;;;;;;5016123;28;20402;-73
2022/03/09 07:08:30;;;;;;;3.17;2.30;;;21.40;26.80;;;;;;5033934;28;20395;-74
2022/03/09 07:10:55;;;;;;;3.30;2.40;;;21.40;26.80;;;;;;5032799;28;20469;-73
2022/03/09 07:13:21;;;;;;;3.88;2.45;;;21.40;26.80;;;;;;5033791;28;20383;-73
2022/03/09 07:15:47;;;;;;;3.63;2.33;;;21.40;26.80;;;;;;5033846;28;20391;-73
2022/03/09 07:18:13;;;;;;;4.03;2.30;;;21.40;26.70;;;;;;5033717;28;20865;-73
2022/03/09 07:20:40;;;;;;;4.13;2.60;;;21.40;26.70;;;;;;5033614;28;20726;-73
2022/03/09 07:23:06;;;;;;;3.10;2.60;;;21.40;26.60;;;;;;5033394;28;20410;-73
2022/03/09 07:25:32;;;;;;;3.22;2.60;;;21.50;26.70;;;;;;5033539;28;20886;-73
2022/03/09 07:27:58;;;;;;;3.78;2.80;;;21.40;27.10;;;;;;5033478;28;20387;-73
2022/03/09 07:30:24;;;;;;;3.80;2.60;;;21.50;26.60;;;;;;5033293;28;20414;-74
2022/03/09 07:32:49;;;;;;;3.72;2.50;;;21.40;26.60;;;;;;5032887;28;20398;-73
2022/03/09 07:35:15;;;;;;;4.27;2.90;;;21.50;26.60;;;;;;5033448;28;20410;-73
2022/03/09 07:37:41;;;;;;;5.00;2.92;;;21.50;26.60;;;;;;5015575;28;20453;-73
2022/03/09 07:40:07;;;;;;;4.30;3.20;;;21.50;26.60;;;;;;5033303;28;20405;-73
2022/03/09 07:42:34;;;;;;;4.28;2.92;;;21.50;26.50;;;;;;5033270;28;20383;-73
2022/03/09 07:45:00;;;;;;;4.05;2.70;;;21.50;26.50;;;;;;5032703;28;20881;-74
2022/03/09 07:47:26;;;;;;;4.53;2.90;;;21.60;26.60;;;;;;5033269;28;20494;-73
2022/03/09 07:49:52;;;;;;;4.25;3.00;;;21.60;26.70;;;;;;5033042;28;20441;-73
2022/03/09 07:52:18;;;;;;;3.70;2.70;;;21.60;26.50;;;;;;5015156;28;20410;-73
2022/03/09 07:54:44;;;;;;;4.57;2.87;;;21.60;26.60;;;;;;5032516;28;20556;-73
2022/03/09 07:57:09;;;;;;;3.45;2.60;;;21.70;26.70;;;;;;5014572;28;20446;-73
2022/03/09 07:59:35;;;;;;;3.47;2.50;;;21.70;26.80;;;;;;5014984;28;20415;-73
2022/03/09 08:02:01;;;;;;;3.70;2.60;;;21.70;26.70;;;;;;5032860;28;20395;-74
2022/03/09 08:04:26;;;;;;;4.13;2.83;;;21.70;26.70;;;;;;5032857;28;20478;-74
2022/03/09 08:06:53;;;;;;;3.83;2.63;;;21.70;26.70;;;;;;5014589;28;20491;-73
2022/03/09 08:09:19;;;;;;;4.70;2.88;;;21.80;26.70;;;;;;5014919;28;20489;-73
2022/03/09 08:11:46;;;;;;;3.70;2.85;;;21.80;26.60;;;;;;5014406;28;20415;-73
2022/03/09 08:14:13;;;;;;;3.75;2.58;;;21.80;26.50;;;;;;5013656;28;20387;-73
2022/03/09 08:16:39;;;;;;;3.75;2.80;;;21.90;26.40;;;;;;5014739;28;20399;-73
2022/03/09 08:19:05;;;;;;;3.90;2.78;;;21.90;26.30;;;;;;5014362;28;20549;-74
2022/03/09 08:21:31;;;;;;;3.28;2.50;;;21.90;26.30;;;;;;5032518;28;20402;-73
2022/03/09 08:23:57;;;;;;;3.05;2.50;;;21.90;26.20;;;;;;5014562;28;20405;-74
2022/03/09 08:26:23;;;;;;;3.20;2.57;;;22.00;26.10;;;;;;5032377;28;20400;-73
2022/03/09 08:28:49;;;;;;;4.68;2.78;;;22.00;26.00;;;;;;5014337;28;20428;-73
2022/03/09 08:31:14;;;;;;;3.35;2.50;;;22.00;26.00;;;;;;5014607;28;20525;-74
2022/03/09 08:33:41;;;;;;;3.73;2.70;;;22.10;26.00;;;;;;5014720;28;20487;-73
2022/03/09 08:36:07;;;;;;;3.10;2.40;;;22.20;26.00;;;;;;5032271;28;20820;-74
2022/03/09 08:38:33;;;;;;;2.97;2.30;;;22.20;26.00;;;;;;5032261;28;20384;-73
2022/03/09 08:40:59;;;;;;;3.25;2.33;;;22.20;25.90;;;;;;5013922;28;20754;-74
2022/03/09 08:43:25;;;;;;;3.38;2.22;;;22.20;26.00;;;;;;5014569;28;20391;-74
2022/03/09 08:45:50;;;;;;;3.00;2.20;;;22.20;26.40;;;;;;5031933;28;20395;-73
2022/03/09 08:48:16;;;;;;;3.30;2.40;;;22.30;25.70;;;;;;5032160;28;20383;-74
2022/03/09 08:50:42;;;;;;;3.35;2.30;;;22.30;25.60;;;;;;5031594;28;20450;-74
2022/03/09 08:53:08;;;;;;;3.15;2.40;;;22.30;25.50;;;;;;5013906;28;20976;-73
2022/03/09 08:55:34;;;;;;;2.90;2.10;;;22.40;25.40;;;;;;5014167;28;20753;-74
2022/03/09 08:58:00;;;;;;;2.67;2.10;;;22.40;25.40;;;;;;5031949;28;20392;-74
2022/03/09 09:00:26;;;;;;;2.70;2.10;;;22.40;25.50;;;;;;5031831;28;20429;-73
2022/03/09 09:02:52;;;;;;;2.65;2.13;;;22.40;25.20;;;;;;5031261;28;20395;-74
2022/03/09 09:05:19;;;;;;;2.40;1.80;;;22.40;25.30;;;;;;5031771;28;20399;-74
2022/03/09 09:07:45;;;;;;;2.60;1.92;;;22.50;25.60;;;;;;5013960;28;20789;-73
2022/03/09 09:10:11;;;;;;;2.85;2.20;;;22.50;25.80;;;;;;5031520;28;20908;-74
2022/03/09 09:12:37;;;;;;;3.00;2.00;;;22.60;25.90;;;;;;5031717;28;20467;-74
2022/03/09 09:15:04;;;;;;;2.60;1.85;;;22.70;25.90;;;;;;5013448;28;20893;-74
2022/03/09 09:17:30;;;;;;;2.60;2.03;;;22.70;25.80;;;;;;5031745;28;20383;-73
2022/03/09 09:19:55;;;;;;;2.20;1.63;;;22.80;25.80;;;;;;5013723;28;21003;-74
2022/03/09 09:22:21;;;;;;;2.40;1.70;;;22.80;25.90;;;;;;5013931;28;20861;-73
2022/03/09 09:24:46;;;;;;;2.70;1.83;;;22.80;25.80;;;;;;5031131;28;20402;-73
2022/03/09 09:27:12;;;;;;;2.35;1.70;;;22.80;25.70;;;;;;5031214;28;20383;-73
2022/03/09 09:29:38;;;;;;;2.60;1.70;;;22.80;25.90;;;;;;5031513;28;20387;-74
2022/03/09 09:32:04;;;;;;;2.30;1.73;;;22.80;26.00;;;;;;5013639;28;20442;-73
2022/03/09 09:34:29;;;;;;;2.25;1.60;;;22.80;26.00;;;;;;5031380;28;20387;-74
2022/03/09 09:36:55;;;;;;;2.10;1.50;;;22.80;26.10;;;;;;5030904;28;20769;-73
2022/03/09 09:39:21;;;;;;;2.65;1.88;;;22.80;26.20;;;;;;5013613;28;20387;-73
2022/03/09 09:41:49;;;;;;;2.50;1.70;;;22.80;26.10;;;;;;5013680;28;20395;-74
2022/03/09 09:44:15;;;;;;;2.00;1.40;;;22.80;26.10;;;;;;5031112;28;20498;-73
2022/03/09 09:46:42;;;;;;;2.50;1.70;;;22.80;26.10;;;;;;5031280;28;20419;-74
2022/03/09 09:49:10;;;;;;;2.35;2.00;;;22.80;26.10;;;;;;5031018;28;20485;-74
2022/03/09 09:51:39;;;;;;;2.33;1.60;;;22.80;25.70;;;;;;5013157;28;20451;-73
2022/03/09 09:54:05;;;;;;;2.15;1.58;;;22.80;26.30;;;;;;5013453;28;20438;-73
2022/03/09 09:56:35;;;;;;;2.53;1.40;;;22.90;25.80;;;;;;5031279;28;20405;-73
2022/03/09 09:59:01;;;;;;;2.63;1.50;;;22.90;25.90;;;;;;5030718;28;20391;-75
2022/03/09 10:01:28;;;;;;;2.72;1.75;;;22.90;25.90;;;;;;5031128;28;20755;-73
2022/03/09 10:03:53;;;;;;;2.40;1.70;;;22.90;25.60;;;;;;5031091;28;20411;-74
2022/03/09 10:06:19;;;;;;;2.03;1.53;;;22.90;25.90;;;;;;5013465;28;20414;-74
2022/03/09 10:09:09;;;;;;;2.30;1.60;;;22.90;25.80;;;;;;5013144;28;20403;-73
2022/03/09 10:11:54;;;;;;;2.05;1.40;;;22.90;25.90;;;;;;5004518;28;20904;-74
2022/03/09 10:14:43;;;;;;;1.90;1.45;;;22.80;26.20;;;;;;5031122;28;20418;-74
2022/03/09 10:17:16;;;;;;;2.15;1.60;;;22.80;26.20;;;;;;5030738;28;20421;-73
2022/03/09 10:19:50;;;;;;;2.30;1.60;;;22.90;26.10;;;;;;5031023;28;20387;-73
2022/03/09 10:22:29;;;;;;;2.63;1.52;;;22.90;25.90;;;;;;5031166;28;20386;-73
2022/03/09 10:25:00;;;;;;;2.40;1.50;;;23.00;25.90;;;;;;5030547;28;20435;-74
2022/03/09 10:27:38;;;;;;;3.28;1.50;;;23.00;25.70;;;;;;5031027;28;20836;-74
2022/03/09 10:30:06;;;;;;;2.05;1.35;;;23.00;25.80;;;;;;5030787;28;20431;-73
2022/03/09 10:32:53;;;;;;;2.10;1.40;;;23.00;25.80;;;;;;5030815;28;20395;-73
2022/03/09 10:35:39;;;;;;;2.08;1.48;;;23.00;25.80;;;;;;5030840;28;20833;-74
2022/03/09 10:38:15;;;;;;;1.80;1.37;;;23.00;25.80;;;;;;5034627;28;20395;-73
2022/03/09 10:40:47;;;;;;;2.33;1.50;;;23.00;25.90;;;;;;5016674;28;20395;-74
2022/03/09 10:43:17;;;;;;;1.95;1.48;;;23.00;25.80;;;;;;5034150;28;20395;-73
2022/03/09 10:46:17;;;;;;;1.92;1.40;;;23.00;25.90;;;;;;5034363;28;20482;-73
2022/03/09 10:48:57;;;;;;;2.50;1.60;;;23.00;26.00;;;;;;5001922;28;20402;-73
2022/03/09 10:51:26;;;;;;;1.52;1.10;;;23.00;25.80;;;;;;5034063;28;20423;-73
2022/03/09 10:53:52;;;;;;;1.60;1.45;;;23.00;25.80;;;;;;5034271;28;20387;-73
2022/03/09 10:56:19;;;;;;;1.60;1.30;;;23.00;26.00;;;;;;5034207;28;20857;-73
2022/03/09 10:58:45;;;;;;;1.83;1.23;;;23.00;25.90;;;;;;5016356;28;20911;-73
2022/03/09 11:01:16;;;;;;;2.10;1.40;;;23.10;25.60;;;;;;5015980;28;20435;-73
2022/03/09 11:03:43;;;;;;;2.05;1.40;;;23.10;25.50;;;;;;5034083;28;20511;-73
2022/03/09 11:06:10;;;;;;;1.80;1.30;;;23.10;25.50;;;;;;5016004;28;20407;-73
2022/03/09 11:08:37;;;;;;;2.30;1.30;;;23.10;25.40;;;;;;5016072;28;20393;-73
2022/03/09 11:11:04;;;;;;;2.20;1.40;;;23.10;25.50;;;;;;5015417;28;20407;-72
2022/03/09 11:13:36;;;;;;;2.20;1.30;;;23.10;25.40;;;;;;5016059;28;20391;-72
2022/03/09 11:16:03;;;;;;;1.48;1.23;;;23.10;25.50;;;;;;5033775;28;20391;-72
2022/03/09 11:18:31;;;;;;;1.70;1.30;;;23.10;25.50;;;;;;5016138;28;20399;-72
2022/03/09 11:21:00;;;;;;;2.30;1.42;;;23.10;25.30;;;;;;5033160;28;20473;-72
2022/03/09 11:23:28;;;;;;;1.75;1.30;;;23.10;25.30;;;;;;5033646;28;20387;-73
2022/03/09 11:26:26;;;;;;;2.60;1.48;;;23.10;25.20;;;;;;5015727;28;20876;-73
2022/03/09 11:29:04;;;;;;;2.00;1.40;;;23.10;25.30;;;;;;5015692;28;20401;-74
2022/03/09 11:31:51;;;;;;;1.83;1.23;;;23.20;25.30;;;;;;5033374;28;20425;-74
2022/03/09 11:34:42;;;;;;;1.90;1.50;;;23.20;25.30;;;;;;5015807;28;20383;-73
2022/03/09 11:37:15;;;;;;;2.08;1.33;;;23.20;25.30;;;;;;5032878;28;20453;-73
2022/03/09 11:39:47;;;;;;;1.73;1.25;;;23.20;25.30;;;;;;5015418;28;20391;-74
2022/03/09 11:42:21;;;;;;;2.13;1.30;;;23.30;25.20;;;;;;5033402;28;20762;-73
2022/03/09 11:44:51;;;;;;;1.60;1.30;;;23.30;25.30;;;;;;5015624;28;20501;-73
2022/03/09 11:47:18;;;;;;;1.63;1.30;;;23.30;25.30;;;;;;5032808;28;20737;-73
2022/03/09 11:49:50;;;;;;;2.28;1.33;;;23.30;25.20;;;;;;5033202;28;20397;-75
2022/03/09 11:52:19;;;;;;;1.55;1.20;;;23.30;25.20;;;;;;5014966;28;20781;-73
2022/03/09 11:55:15;;;;;;;1.98;1.20;;;23.30;25.20;;;;;;5015482;28;20387;-73
2022/03/09 11:57:50;;;;;;;1.67;1.38;;;23.30;25.30;;;;;;5015128;28;20413;-75
2022/03/09 12:00:20;;;;;;;1.50;1.10;;;23.40;25.20;;;;;;5015300;28;20390;-73
2022/03/09 12:02:51;;;;;;;1.70;1.30;;;23.40;25.20;;;;;;5033164;28;20486;-73
2022/03/09 12:05:37;;;;;;;1.48;0.98;;;23.40;25.20;;;;;;5014921;28;20438;-73
2022/03/09 12:08:06;;;;;;;1.60;1.00;;;23.40;25.10;;;;;;5014898;28;20967;-75
2022/03/09 12:10:51;;;;;;;1.50;1.10;;;23.40;25.40;;;;;;5015091;28;20415;-74
2022/03/09 12:13:34;;;;;;;1.50;1.10;;;23.50;25.40;;;;;;5014885;28;20391;-73
2022/03/09 12:16:17;;;;;;;1.33;1.05;;;23.50;25.50;;;;;;5032663;28;20394;-75
2022/03/09 12:19:00;;;;;;;1.20;0.90;;;23.50;25.40;;;;;;5014925;28;20448;-73
2022/03/09 12:21:26;;;;;;;1.45;1.00;;;23.50;25.60;;;;;;5014827;28;20403;-73
2022/03/09 12:24:04;;;;;;;1.37;1.00;;;23.50;25.60;;;;;;5014855;28;20533;-73
2022/03/09 12:26:50;;;;;;;1.42;0.90;;;23.50;25.70;;;;;;5014678;28;20398;-73
2022/03/09 12:29:21;;;;;;;1.40;1.10;;;23.50;25.60;;;;;;5032231;28;20422;-72
2022/03/09 12:32:05;;;;;;;2.10;1.13;;;23.60;25.70;;;;;;5032305;28;20418;-72
2022/03/09 12:34:35;;;;;;;1.40;0.95;;;23.60;25.70;;;;;;5014665;28;20797;-73
2022/03/09 12:37:01;;;;;;;1.20;0.90;;;23.50;25.80;;;;;;5031716;28;20399;-73
2022/03/09 12:39:27;;;;;;;1.70;1.00;;;23.50;25.70;;;;;;5032239;28;20383;-73
2022/03/09 12:41:56;;;;;;;1.33;0.90;;;23.50;25.70;;;;;;5014418;28;20453;-74
2022/03/09 12:44:22;;;;;;;0.95;0.70;;;23.60;25.80;;;;;;5014497;28;20398;-72
2022/03/09 12:46:51;;;;;;;1.40;0.85;;;23.60;25.80;;;;;;5014355;28;20431;-73
2022/03/09 12:49:20;;;;;;;1.60;0.73;;;23.60;25.70;;;;;;5013976;28;20509;-74
2022/03/09 12:51:53;;;;;;;1.33;0.90;;;23.60;25.70;;;;;;5031829;28;20430;-75
2022/03/09 12:54:36;;;;;;;1.30;0.90;;;23.70;25.60;;;;;;5032000;28;20383;-72